Time;durP1;ratioP1;P1;durP2;ratioP2;P2;SDS_P1;SDS_P2;PMS_P1;PMS_P2;Temp;Humidity;BMP_temperature;BMP_pressure;BME280_temperature;BME280_humidity;BME280_pressure;Samples;Min_cycle;Max_cycle;Signal;HPM_P1;HPM_P2
2021/05/02 00:01:50;;;;;;;18.45;11.18;;;;;;;5.52;78.67;101515.25;5093206;28;20044;-52
2021/05/02 00:04:16;;;;;;;17.55;11.18;;;;;;;5.55;78.49;101514.31;5092815;28;20498;-53
2021/05/02 00:06:43;;;;;;;21.85;11.13;;;;;;;5.50;78.75;101516.22;5091708;28;20056;-54
2021/05/02 00:09:09;;;;;;;17.85;11.45;;;;;;;5.52;78.73;101517.88;5092061;28;20059;-52
2021/05/02 00:11:36;;;;;;;20.48;12.20;;;;;;;5.51;78.68;101518.78;5090725;28;20077;-50
2021/05/02 00:14:03;;;;;;;18.33;11.43;;;;;;;5.50;78.60;101511.84;5093191;28;20036;-54
2021/05/02 00:16:30;;;;;;;17.73;10.82;;;;;;;5.58;78.51;101514.22;5093124;28;20051;-52
2021/05/02 00:19:06;;;;;;;18.88;11.20;;;;;;;5.52;79.02;101519.63;5092943;28;20397;-54
2021/05/02 00:21:32;;;;;;;16.08;10.30;;;;;;;5.51;78.82;101518.78;5091346;28;20043;-52
2021/05/02 00:23:59;;;;;;;16.50;10.48;;;;;;;5.51;78.70;101517.94;5091594;28;20036;-53
2021/05/02 00:26:26;;;;;;;18.75;10.60;;;;;;;5.56;78.41;101521.22;5091294;28;20059;-53
2021/05/02 00:28:52;;;;;;;15.27;10.57;;;;;;;5.50;78.93;101516.22;5091453;28;20052;-54
2021/05/02 00:31:19;;;;;;;18.13;10.00;;;;;;;5.49;78.39;101524.94;5091286;28;20523;-50
2021/05/02 00:33:46;;;;;;;16.95;11.15;;;;;;;5.46;78.71;101515.47;5057248;28;20048;-50
2021/05/02 00:36:12;;;;;;;17.58;11.20;;;;;;;5.41;79.10;101518.22;5091841;28;20059;-50
2021/05/02 00:38:41;;;;;;;16.17;10.32;;;;;;;5.39;78.82;101513.97;5092504;28;20456;-51
2021/05/02 00:41:13;;;;;;;16.45;9.50;;;;;;;5.38;78.74;101513.09;5072757;28;20051;-52
2021/05/02 00:43:55;;;;;;;16.77;10.47;;;;;;;5.32;78.27;101517.69;5092049;28;20075;-50
2021/05/02 00:46:33;;;;;;;16.63;10.43;;;;;;;5.36;78.15;101509.69;5092655;28;20328;-47
2021/05/02 00:49:17;;;;;;;14.55;9.75;;;;;;;5.29;78.10;101512.53;5092973;28;20048;-51
2021/05/02 00:51:47;;;;;;;17.15;10.48;;;;;;;5.34;78.11;101513.25;5091756;28;20051;-49
2021/05/02 00:54:14;;;;;;;17.17;9.52;;;;;;;5.28;78.05;101510.84;5092491;28;20054;-52
2021/05/02 00:56:57;;;;;;;16.10;9.82;;;;;;;5.23;78.83;101506.59;5090297;28;20047;-53
2021/05/02 00:59:41;;;;;;;18.02;10.07;;;;;;;5.31;78.69;101506.38;5092487;28;20044;-50
2021/05/02 01:02:10;;;;;;;20.90;10.88;;;;;;;5.24;79.38;101508.31;5092294;28;20048;-49
2021/05/02 01:04:40;;;;;;;17.30;10.90;;;;;;;5.20;79.82;101513.69;5091914;28;20109;-53
2021/05/02 01:07:08;;;;;;;18.42;10.52;;;;;;;5.19;80.49;101520.66;5074115;28;20098;-51
2021/05/02 01:09:35;;;;;;;16.63;10.15;;;;;;;5.19;80.49;101512.81;5074162;28;20074;-50
2021/05/02 01:12:02;;;;;;;17.35;10.50;;;;;;;5.23;80.27;101514.44;5089879;28;20047;-51
2021/05/02 01:14:31;;;;;;;16.60;10.27;;;;;;;5.19;80.47;101515.44;5091694;28;20040;-52
2021/05/02 01:16:58;;;;;;;18.40;10.15;;;;;;;5.14;80.92;101513.88;5073514;28;20537;-51
2021/05/02 01:19:26;;;;;;;18.35;10.73;;;;;;;5.15;80.93;101515.59;5091514;28;20510;-52
2021/05/02 01:21:57;;;;;;;18.08;9.57;;;;;;;5.20;80.46;101518.91;5090564;28;20359;-54
2021/05/02 01:24:23;;;;;;;17.38;10.48;;;;;;;5.17;80.25;101514.66;5090590;28;20039;-50
2021/05/02 01:26:49;;;;;;;15.70;9.60;;;;;;;5.22;80.07;101517.97;5088299;28;20047;-52
2021/05/02 01:29:16;;;;;;;14.70;9.00;;;;;;;5.25;79.86;101523.06;5091611;28;20407;-52
2021/05/02 01:31:43;;;;;;;14.95;8.32;;;;;;;5.22;79.63;101517.09;5091720;28;20050;-51
2021/05/02 01:34:10;;;;;;;14.32;8.15;;;;;;;5.31;79.24;101523.78;5091052;28;20451;-53
2021/05/02 01:36:37;;;;;;;16.90;9.02;;;;;;;5.34;79.43;101519.31;5091405;28;20094;-51
2021/05/02 01:39:06;;;;;;;14.52;8.32;;;;;;;5.38;79.13;101530.50;5073360;28;20048;-54
2021/05/02 01:41:32;;;;;;;17.25;9.02;;;;;;;5.34;78.55;101521.91;5089524;28;20055;-52
2021/05/02 01:43:59;;;;;;;13.05;8.10;;;;;;;5.35;78.89;101520.19;5089578;28;20115;-52
2021/05/02 01:46:30;;;;;;;13.45;7.25;;;;;;;5.38;78.72;101517.47;5091552;28;20048;-49
2021/05/02 01:48:56;;;;;;;14.10;7.90;;;;;;;5.39;78.12;101519.19;5091306;28;20386;-52
2021/05/02 01:51:22;;;;;;;12.02;7.30;;;;;;;5.44;78.59;101516.41;5090589;28;20051;-50
2021/05/02 01:53:49;;;;;;;13.13;7.25;;;;;;;5.47;78.36;101518.91;5090034;28;20039;-50
2021/05/02 01:56:16;;;;;;;12.10;7.22;;;;;;;5.49;78.05;101517.94;5088130;28;20040;-51
2021/05/02 01:58:43;;;;;;;11.68;7.00;;;;;;;5.53;78.03;101522.16;5089612;28;20500;-52
2021/05/02 02:01:14;;;;;;;12.15;6.57;;;;;;;5.54;77.60;101523.03;5090946;28;20059;-51
2021/05/02 02:03:43;;;;;;;12.30;6.63;;;;;;;5.49;77.48;101515.34;5091249;28;20457;-48
2021/05/02 02:06:10;;;;;;;16.25;6.30;;;;;;;5.47;77.12;101525.00;5090234;28;20062;-48
2021/05/02 02:08:36;;;;;;;12.80;6.43;;;;;;;5.48;77.10;101523.22;5090223;28;20059;-49
2021/05/02 02:11:02;;;;;;;10.10;6.00;;;;;;;5.50;77.16;101524.03;5091528;28;20390;-49
2021/05/02 02:13:29;;;;;;;10.90;5.28;;;;;;;5.47;76.16;101525.00;5092646;28;20044;-49
2021/05/02 02:15:55;;;;;;;11.27;5.50;;;;;;;5.45;75.86;101524.19;5091512;28;20475;-52
2021/05/02 02:18:22;;;;;;;9.80;5.10;;;;;;;5.50;75.61;101526.66;5091434;28;20059;-53
2021/05/02 02:20:54;;;;;;;12.68;4.50;;;;;;;5.52;74.76;101527.44;5092624;28;20040;-49
2021/05/02 02:23:25;;;;;;;10.40;4.18;;;;;;;5.51;74.13;101526.59;5092744;28;20428;-48
2021/05/02 02:25:53;;;;;;;10.35;4.60;;;;;;;5.47;73.83;101530.22;5092661;28;20036;-48
2021/05/02 02:28:21;;;;;;;9.93;3.55;;;;;;;5.48;72.93;101531.06;5092326;28;20044;-50
2021/05/02 02:30:50;;;;;;;8.10;3.45;;;;;;;5.51;72.55;101526.59;5091065;28;20044;-51
2021/05/02 02:33:17;;;;;;;7.20;3.45;;;;;;;5.54;72.63;101533.47;5090870;28;20423;-49
2021/05/02 02:35:50;;;;;;;8.68;3.80;;;;;;;5.47;72.02;101547.59;5092318;28;20597;-48
2021/05/02 02:38:22;;;;;;;6.78;3.05;;;;;;;5.41;72.38;101548.66;5091178;28;20056;-50
2021/05/02 02:40:51;;;;;;;8.57;3.60;;;;;;;5.33;72.81;101548.94;5091159;28;20044;-52
2021/05/02 02:43:38;;;;;;;7.88;3.90;;;;;;;5.21;73.41;101546.72;5092218;28;20055;-52
2021/05/02 02:46:05;;;;;;;9.52;3.67;;;;;;;5.14;73.80;101553.00;5092043;28;20052;-48
2021/05/02 02:48:35;;;;;;;6.90;4.03;;;;;;;5.12;74.11;101553.06;5090855;28;20050;-51
2021/05/02 02:51:03;;;;;;;12.15;4.43;;;;;;;5.06;74.46;101559.31;5091113;28;20352;-49
2021/05/02 02:53:31;;;;;;;8.48;4.38;;;;;;;5.13;74.99;101551.31;5091985;28;20032;-54
2021/05/02 02:56:01;;;;;;;10.65;4.72;;;;;;;5.03;75.47;101554.19;5092143;28;20056;-52
2021/05/02 02:58:33;;;;;;;9.85;5.35;;;;;;;5.09;75.29;101558.38;5092444;28;20514;-53
2021/05/02 03:01:02;;;;;;;11.82;5.28;;;;;;;5.07;75.82;101548.00;5092259;28;20048;-50
2021/05/02 03:03:30;;;;;;;11.23;5.78;;;;;;;5.05;76.25;101556.75;5092136;28;20036;-53
2021/05/02 03:05:56;;;;;;;9.85;5.65;;;;;;;4.98;76.96;101550.03;5092092;28;20047;-51
2021/05/02 03:08:24;;;;;;;12.93;6.43;;;;;;;4.90;77.56;101556.31;5091025;28;20378;-53
2021/05/02 03:10:51;;;;;;;11.57;5.75;;;;;;;4.90;77.63;101553.69;5090854;28;20044;-51
2021/05/02 03:13:17;;;;;;;11.55;5.75;;;;;;;5.03;77.73;101563.75;5091949;28;20495;-50
2021/05/02 03:15:44;;;;;;;11.52;6.15;;;;;;;4.96;77.29;101560.47;5092114;28;20143;-51
2021/05/02 03:18:24;;;;;;;10.15;6.15;;;;;;;4.94;78.10;101564.91;5074041;28;20787;-53
2021/05/02 03:21:02;;;;;;;11.98;5.95;;;;;;;4.84;78.42;101569.53;5091901;28;20047;-51
2021/05/02 03:23:31;;;;;;;11.38;6.05;;;;;;;4.95;77.93;101570.94;5090908;28;20476;-50
2021/05/02 03:26:06;;;;;;;11.98;5.80;;;;;;;4.91;78.23;101571.06;5092074;28;20521;-50
2021/05/02 03:28:50;;;;;;;12.30;6.55;;;;;;;4.91;78.63;101575.44;5090917;28;20040;-49
2021/05/02 03:31:17;;;;;;;12.82;5.68;;;;;;;4.87;78.71;101569.44;5091939;28;20474;-52
2021/05/02 03:33:47;;;;;;;15.20;6.00;;;;;;;4.90;78.15;101579.75;5090369;28;20055;-50
2021/05/02 03:36:22;;;;;;;12.40;6.18;;;;;;;4.95;78.37;101574.44;5090908;28;20044;-52
2021/05/02 03:38:51;;;;;;;10.30;5.75;;;;;;;4.92;78.21;101577.09;5090641;28;20048;-51
2021/05/02 03:41:19;;;;;;;10.65;5.65;;;;;;;4.85;78.90;101586.91;5094070;28;20059;-52
2021/05/02 03:43:46;;;;;;;12.40;6.20;;;;;;;4.84;78.49;101582.56;5093472;28;20077;-52
2021/05/02 03:46:25;;;;;;;11.95;5.38;;;;;;;4.87;78.64;101576.41;5094040;28;20376;-48
2021/05/02 03:49:02;;;;;;;12.00;5.55;;;;;;;4.84;78.65;101590.38;5095304;28;20055;-49
2021/05/02 03:51:30;;;;;;;14.45;6.53;;;;;;;4.81;78.66;101585.25;5095610;28;20051;-51
2021/05/02 03:53:57;;;;;;;10.10;4.90;;;;;;;4.80;78.31;101586.16;5093631;28;20044;-47
2021/05/02 03:56:40;;;;;;;11.40;4.38;;;;;;;4.86;78.03;101593.78;5094780;28;20532;-50
2021/05/02 03:59:11;;;;;;;10.48;4.85;;;;;;;4.86;77.75;101593.78;5095455;28;20434;-50
2021/05/02 04:01:42;;;;;;;15.65;6.07;;;;;;;4.72;78.26;101601.16;5095416;28;20052;-50
2021/05/02 04:04:13;;;;;;;9.52;4.43;;;;;;;4.63;78.54;101601.44;5095405;28;20040;-52
2021/05/02 04:06:40;;;;;;;9.90;4.82;;;;;;;4.64;78.59;101603.97;5093928;28;20048;-48
2021/05/02 04:09:08;;;;;;;11.35;4.75;;;;;;;4.65;78.27;101607.44;5095064;28;20048;-49
2021/05/02 04:11:35;;;;;;;10.40;4.43;;;;;;;4.65;78.32;101608.31;5094952;28;20395;-49
2021/05/02 04:14:05;;;;;;;11.45;5.00;;;;;;;4.74;77.92;101615.00;5094905;28;20040;-47
2021/05/02 04:16:32;;;;;;;12.57;4.70;;;;;;;4.63;78.46;101609.25;5094862;28;20044;-49
2021/05/02 04:19:00;;;;;;;10.02;4.75;;;;;;;4.66;78.49;101614.34;5094880;28;20512;-48
2021/05/02 04:21:26;;;;;;;7.03;4.25;;;;;;;4.62;78.63;101620.56;5076700;28;20483;-51
2021/05/02 04:23:53;;;;;;;7.85;4.43;;;;;;;4.55;78.47;101620.75;5093450;28;20044;-52
2021/05/02 04:26:20;;;;;;;12.32;4.35;;;;;;;4.57;78.65;101624.13;5093480;28;20040;-50
2021/05/02 04:28:46;;;;;;;9.68;4.20;;;;;;;4.52;78.86;101625.16;5094625;28;20044;-50
2021/05/02 04:31:13;;;;;;;6.95;3.63;;;;;;;4.55;78.92;101631.16;5093342;28;20044;-48
2021/05/02 04:33:39;;;;;;;11.52;5.28;;;;;;;4.51;78.89;101632.16;5093212;28;20036;-50
2021/05/02 04:36:06;;;;;;;8.80;4.03;;;;;;;4.50;78.52;101638.25;5094429;28;20429;-49
2021/05/02 04:38:33;;;;;;;8.10;3.78;;;;;;;4.50;78.69;101640.84;5094648;28;20101;-52
2021/05/02 04:40:59;;;;;;;8.38;3.88;;;;;;;4.46;78.52;101640.94;5093185;28;20075;-48
2021/05/02 04:43:26;;;;;;;8.90;4.18;;;;;;;4.50;78.73;101653.00;5094217;28;20063;-49
2021/05/02 04:45:52;;;;;;;10.48;4.20;;;;;;;4.48;78.61;101652.19;5094173;28;20048;-48
2021/05/02 04:48:18;;;;;;;6.95;3.50;;;;;;;4.47;78.73;101653.97;5093009;28;20478;-49
2021/05/02 04:50:45;;;;;;;10.65;3.72;;;;;;;4.44;78.74;101654.03;5094036;28;20672;-52
2021/05/02 04:53:12;;;;;;;10.77;3.80;;;;;;;4.49;78.61;101659.97;5092922;28;20039;-52
2021/05/02 04:55:38;;;;;;;10.38;3.92;;;;;;;4.45;78.65;101660.94;5093953;28;20044;-52
2021/05/02 04:58:08;;;;;;;9.07;4.00;;;;;;;4.44;78.65;101659.22;5092489;28;20055;-51
2021/05/02 05:00:35;;;;;;;8.90;3.95;;;;;;;4.38;78.94;101667.22;5092347;28;20039;-51
2021/05/02 05:03:02;;;;;;;10.57;4.25;;;;;;;4.34;78.70;101669.03;5094028;28;20520;-48
2021/05/02 05:05:29;;;;;;;9.70;4.43;;;;;;;4.31;79.00;101668.25;5093601;28;20040;-52
2021/05/02 05:07:56;;;;;;;8.98;3.80;;;;;;;4.30;79.05;101667.41;5092488;28;20043;-51
2021/05/02 05:10:23;;;;;;;10.50;4.32;;;;;;;4.32;79.31;101664.75;5093855;28;20040;-51
2021/05/02 05:12:49;;;;;;;8.50;4.25;;;;;;;4.34;78.67;101668.19;5093579;28;20114;-51
2021/05/02 05:15:16;;;;;;;9.38;4.18;;;;;;;4.30;79.35;101676.97;5093646;28;20062;-52
2021/05/02 05:17:42;;;;;;;10.38;4.57;;;;;;;4.31;79.23;101683.88;5093587;28;20486;-53
2021/05/02 05:20:09;;;;;;;9.52;4.20;;;;;;;4.31;79.12;101673.47;5093534;28;20075;-47
2021/05/02 05:22:35;;;;;;;11.05;4.28;;;;;;;4.37;78.52;101678.53;5093402;28;20087;-49
2021/05/02 05:25:02;;;;;;;10.20;4.28;;;;;;;4.38;78.56;101683.69;5093478;28;20044;-49
2021/05/02 05:27:28;;;;;;;13.50;4.35;;;;;;;4.43;78.82;101681.00;5093543;28;20043;-50
2021/05/02 05:29:54;;;;;;;7.78;3.90;;;;;;;4.49;78.64;101690.38;5092061;28;20101;-52
2021/05/02 05:32:21;;;;;;;11.13;4.07;;;;;;;4.55;78.62;101690.22;5075579;28;20056;-52
2021/05/02 05:34:47;;;;;;;10.93;3.85;;;;;;;4.68;77.74;101698.56;5092990;28;20136;-48
2021/05/02 05:37:13;;;;;;;12.15;4.75;;;;;;;4.66;77.81;101702.97;5093244;28;20044;-48
2021/05/02 05:39:40;;;;;;;9.68;4.75;;;;;;;4.72;77.79;101705.41;5092736;28;20063;-51
2021/05/02 05:42:07;;;;;;;10.50;4.68;;;;;;;4.81;78.33;101710.34;5092021;28;20052;-49
2021/05/02 05:44:34;;;;;;;11.13;4.18;;;;;;;4.88;77.53;101713.66;5092764;28;20032;-51
2021/05/02 05:47:03;;;;;;;11.07;4.63;;;;;;;4.98;77.53;101711.66;5091900;28;20044;-52
2021/05/02 05:49:29;;;;;;;10.98;5.22;;;;;;;5.05;76.67;101713.19;5093213;28;20048;-49
2021/05/02 05:51:55;;;;;;;14.05;4.40;;;;;;;5.12;76.80;101716.50;5092982;28;20070;-53
2021/05/02 05:54:22;;;;;;;11.13;4.63;;;;;;;5.20;76.59;101722.34;5093017;28;20478;-50
2021/05/02 05:56:49;;;;;;;14.00;5.75;;;;;;;5.26;76.49;101719.53;5092034;28;20093;-51
2021/05/02 05:59:16;;;;;;;14.15;5.63;;;;;;;5.33;76.16;101723.69;5092886;28;20048;-50
2021/05/02 06:01:42;;;;;;;9.80;4.70;;;;;;;5.38;75.51;101720.94;5091335;28;20429;-49
2021/05/02 06:04:09;;;;;;;12.30;4.57;;;;;;;5.45;75.62;101722.47;5092992;28;20043;-53
2021/05/02 06:06:36;;;;;;;11.00;3.90;;;;;;;5.53;75.00;101725.69;5092657;28;20056;-47
2021/05/02 06:09:04;;;;;;;15.32;5.35;;;;;;;5.66;75.19;101722.72;5092737;28;20051;-48
2021/05/02 06:11:31;;;;;;;9.55;4.13;;;;;;;5.72;74.20;101726.00;5092730;28;20040;-50
2021/05/02 06:13:58;;;;;;;8.52;3.85;;;;;;;5.81;74.10;101724.88;5092584;28;20123;-51
2021/05/02 06:16:25;;;;;;;9.38;3.97;;;;;;;5.94;74.62;101720.09;5074819;28;20083;-48
2021/05/02 06:18:52;;;;;;;13.50;4.15;;;;;;;6.06;73.89;101724.97;5092557;28;20040;-48
2021/05/02 06:21:20;;;;;;;8.88;3.88;;;;;;;6.17;73.01;101727.25;5092452;28;20040;-50
2021/05/02 06:23:51;;;;;;;9.32;3.35;;;;;;;6.25;71.55;101725.22;5091398;28;20043;-49
2021/05/02 06:26:20;;;;;;;7.45;3.13;;;;;;;6.33;71.36;101724.13;5092381;28;20048;-51
2021/05/02 06:28:49;;;;;;;6.97;2.70;;;;;;;6.48;69.95;101730.63;5075004;28;20040;-51
2021/05/02 06:31:16;;;;;;;7.03;3.00;;;;;;;6.56;70.69;101726.81;5092432;28;20391;-49
2021/05/02 06:33:42;;;;;;;7.05;2.75;;;;;;;6.68;70.52;101724.69;5092200;28;20040;-48
2021/05/02 06:36:09;;;;;;;5.45;2.28;;;;;;;6.77;68.81;101727.81;5091228;28;20449;-46
2021/05/02 06:38:35;;;;;;;5.45;2.55;;;;;;;6.83;68.52;101726.78;5091240;28;20052;-52
2021/05/02 06:41:02;;;;;;;7.25;2.67;;;;;;;6.97;67.89;101722.78;5092223;28;20052;-53
2021/05/02 06:43:29;;;;;;;5.18;2.20;;;;;;;7.05;66.86;101726.00;5091166;28;20051;-53
2021/05/02 06:45:55;;;;;;;8.13;2.78;;;;;;;7.16;65.63;101723.84;5092215;28;20048;-53
2021/05/02 06:48:21;;;;;;;8.10;2.30;;;;;;;7.14;64.59;101725.66;5092388;28;20064;-54
2021/05/02 06:50:48;;;;;;;8.13;3.03;;;;;;;7.29;64.96;101724.25;5090978;28;20048;-54
2021/05/02 06:53:14;;;;;;;9.45;2.10;;;;;;;7.46;64.64;101726.25;5092368;28;20511;-54
2021/05/02 06:55:40;;;;;;;7.75;2.10;;;;;;;7.59;64.44;101727.47;5092490;28;20512;-53
2021/05/02 06:58:11;;;;;;;7.25;2.20;;;;;;;7.69;63.04;101719.25;5092560;28;20044;-55
2021/05/02 07:00:38;;;;;;;4.93;1.88;;;;;;;7.78;61.07;101725.00;5092166;28;20048;-55
2021/05/02 07:03:06;;;;;;;5.30;1.80;;;;;;;7.84;59.74;101726.50;5092134;28;20058;-54
2021/05/02 07:05:33;;;;;;;3.65;1.42;;;;;;;7.95;60.11;101726.94;5074330;28;20168;-55
2021/05/02 07:07:59;;;;;;;3.95;1.85;;;;;;;8.12;60.33;101730.63;5090737;28;20044;-55
2021/05/02 07:10:26;;;;;;;4.38;1.80;;;;;;;8.37;59.63;101740.97;5092436;28;20376;-49
2021/05/02 07:12:53;;;;;;;4.53;1.80;;;;;;;8.41;58.76;101731.19;5092302;28;20055;-48
2021/05/02 07:15:19;;;;;;;4.90;2.30;;;;;;;8.49;58.49;101744.88;5094515;28;20060;-50
2021/05/02 07:17:46;;;;;;;4.53;1.88;;;;;;;8.52;57.71;101739.53;5095910;28;20051;-52
2021/05/02 07:20:14;;;;;;;3.85;1.80;;;;;;;8.62;57.95;101746.06;5095890;28;20055;-52
2021/05/02 07:22:43;;;;;;;4.07;1.90;;;;;;;8.74;58.00;101755.19;5095509;28;20052;-55
2021/05/02 07:25:10;;;;;;;6.63;1.88;;;;;;;8.69;57.14;101753.69;5094018;28;20044;-53
2021/05/02 07:27:36;;;;;;;5.45;1.58;;;;;;;8.80;56.25;101749.66;5095595;28;20524;-53
2021/05/02 07:30:03;;;;;;;4.43;1.45;;;;;;;8.90;55.65;101752.75;5095386;28;20036;-52
2021/05/02 07:32:30;;;;;;;3.30;1.50;;;;;;;8.95;55.26;101749.91;5096153;28;20051;-54
2021/05/02 07:34:56;;;;;;;6.78;1.70;;;;;;;9.03;54.04;101765.34;5095253;28;20694;-53
2021/05/02 07:37:22;;;;;;;3.88;1.50;;;;;;;8.89;53.47;101758.03;5095579;28;20052;-54
2021/05/02 07:39:49;;;;;;;3.45;1.50;;;;;;;8.72;53.75;101764.03;5095354;28;20044;-50
2021/05/02 07:42:15;;;;;;;2.60;1.42;;;;;;;8.87;55.04;101763.34;5077362;28;20059;-53
2021/05/02 07:44:41;;;;;;;4.38;1.83;;;;;;;8.99;53.98;101759.34;5095407;28;20047;-52
2021/05/02 07:47:08;;;;;;;5.30;1.40;;;;;;;9.07;53.12;101764.28;5095374;28;20037;-52
2021/05/02 07:49:35;;;;;;;4.35;1.60;;;;;;;9.12;52.31;101757.91;5094257;28;20498;-56
2021/05/02 07:52:01;;;;;;;3.22;1.52;;;;;;;9.10;52.54;101764.13;5095221;28;20786;-55
2021/05/02 07:54:29;;;;;;;3.83;1.85;;;;;;;9.41;52.57;101760.16;5095224;28;20044;-57
2021/05/02 07:56:55;;;;;;;3.80;1.35;;;;;;;9.67;51.77;101763.31;5060597;28;20051;-55
2021/05/02 07:59:21;;;;;;;6.45;1.40;;;;;;;9.88;50.06;101761.47;5095130;28;20048;-57
2021/05/02 08:01:47;;;;;;;3.30;1.27;;;;;;;9.87;49.00;101760.63;5095124;28;20040;-56
2021/05/02 08:04:14;;;;;;;3.70;1.52;;;;;;;9.73;48.68;101768.28;5093828;28;20067;-55
2021/05/02 08:06:40;;;;;;;4.95;1.40;;;;;;;9.43;49.82;101767.00;5093978;28;20086;-55
2021/05/02 08:09:06;;;;;;;5.03;1.60;;;;;;;9.51;50.17;101765.81;5093980;28;20051;-55
2021/05/02 08:11:33;;;;;;;3.72;1.40;;;;;;;9.79;50.04;101755.72;5094927;28;20048;-55
2021/05/02 08:14:00;;;;;;;3.63;1.10;;;;;;;9.78;48.20;101759.28;5093758;28;20040;-56
2021/05/02 08:16:26;;;;;;;5.55;1.33;;;;;;;9.91;48.52;101758.69;5093715;28;20048;-55
2021/05/02 08:18:52;;;;;;;4.28;1.30;;;;;;;10.10;47.52;101771.78;5094864;28;20040;-56
2021/05/02 08:21:19;;;;;;;2.13;1.27;;;;;;;10.11;46.04;101770.88;5094838;28;20101;-56
2021/05/02 08:23:46;;;;;;;2.67;1.30;;;;;;;10.25;45.47;101768.44;5094729;28;20356;-54
2021/05/02 08:26:12;;;;;;;2.72;1.20;;;;;;;10.43;44.94;101768.47;5094182;28;20063;-53
2021/05/02 08:28:38;;;;;;;2.40;1.10;;;;;;;10.73;44.49;101773.97;5076540;28;20059;-52
2021/05/02 08:31:12;;;;;;;4.50;1.08;;;;;;;11.07;43.59;101766.97;5094595;28;20052;-51
2021/05/02 08:33:39;;;;;;;2.45;1.10;;;;;;;10.83;43.84;101780.44;5094127;28;20139;-52
2021/05/02 08:36:05;;;;;;;4.82;1.23;;;;;;;10.46;45.10;101782.31;5094278;28;20196;-49
2021/05/02 08:38:33;;;;;;;2.15;1.23;;;;;;;10.20;45.32;101786.22;5094389;28;20394;-52
2021/05/02 08:41:00;;;;;;;4.88;1.42;;;;;;;9.96;46.18;101785.59;5094214;28;20128;-48
2021/05/02 08:43:28;;;;;;;3.70;1.13;;;;;;;9.91;46.40;101785.84;5094540;28;20079;-54
2021/05/02 08:45:54;;;;;;;4.80;1.40;;;;;;;10.35;45.84;101782.00;5094133;28;20059;-56
2021/05/02 08:48:22;;;;;;;4.32;1.30;;;;;;;10.92;45.30;101776.50;5076172;28;20060;-56
2021/05/02 08:50:52;;;;;;;3.97;1.20;;;;;;;11.26;43.63;101782.66;5092578;28;20128;-50
2021/05/02 08:53:19;;;;;;;1.95;1.00;;;;;;;11.39;41.93;101774.91;5092554;28;20051;-47
2021/05/02 08:55:47;;;;;;;2.45;1.50;;;;;;;11.49;42.16;101775.28;5092691;28;20511;-52
2021/05/02 08:58:17;;;;;;;2.28;1.00;;;;;;;11.51;40.24;101768.16;5075975;28;20395;-52
2021/05/02 09:00:44;;;;;;;3.40;1.10;;;;;;;11.76;41.37;101780.81;5093502;28;20048;-57
2021/05/02 09:03:11;;;;;;;2.72;1.10;;;;;;;12.15;38.36;101782.19;5093771;28;20406;-56
2021/05/02 09:05:50;;;;;;;2.60;1.15;;;;;;;12.19;37.09;101777.59;5092423;28;20044;-57
2021/05/02 09:08:30;;;;;;;3.78;0.93;;;;;;;11.95;37.88;101775.41;5093745;28;20441;-52
2021/05/02 09:10:56;;;;;;;2.67;1.00;;;;;;;11.56;38.15;101773.16;5093686;28;20040;-56
2021/05/02 09:13:23;;;;;;;1.45;0.90;;;;;;;11.61;40.32;101781.66;5092275;28;20048;-57
2021/05/02 09:16:00;;;;;;;3.33;0.88;;;;;;;11.33;41.83;101777.91;5092243;28;20050;-57
2021/05/02 09:18:40;;;;;;;4.57;1.38;;;;;;;10.90;41.97;101782.78;5093248;28;20066;-52
2021/05/02 09:21:08;;;;;;;2.92;1.42;;;;;;;11.29;40.77;101774.56;5093423;28;20099;-57
2021/05/02 09:23:39;;;;;;;2.47;1.10;;;;;;;11.71;38.70;101779.38;5091965;28;20036;-57
2021/05/02 09:26:08;;;;;;;3.28;1.05;;;;;;;11.81;38.00;101778.78;5092012;28;20054;-56
2021/05/02 09:28:44;;;;;;;2.20;1.02;;;;;;;12.39;37.58;101778.22;5092045;28;20059;-57
2021/05/02 09:31:13;;;;;;;2.03;1.00;;;;;;;12.74;37.67;101780.59;5093123;28;20036;-56
2021/05/02 09:33:39;;;;;;;5.30;1.20;;;;;;;12.93;36.97;101775.91;5092419;28;20040;-57
2021/05/02 09:36:10;;;;;;;1.92;0.80;;;;;;;13.14;36.55;101772.91;5092170;28;20056;-57
2021/05/02 09:38:38;;;;;;;3.20;0.95;;;;;;;12.90;36.42;101773.47;5092312;28;20076;-57
2021/05/02 09:41:05;;;;;;;4.82;1.60;;;;;;;12.92;36.65;101778.63;5091893;28;20032;-57
2021/05/02 09:43:36;;;;;;;3.80;1.20;;;;;;;13.09;36.68;101777.59;5091735;28;20417;-57
2021/05/02 09:46:34;;;;;;;2.22;0.95;;;;;;;12.72;36.68;101780.69;5093058;28;20126;-56
2021/05/02 09:49:00;;;;;;;1.92;0.98;;;;;;;12.87;36.47;101784.22;5093001;28;20498;-57
2021/05/02 09:51:29;;;;;;;0.93;0.82;;;;;;;12.93;36.60;101783.81;5093338;28;20055;-57
2021/05/02 09:54:05;;;;;;;5.53;1.15;;;;;;;13.10;36.77;101781.94;5092815;28;20039;-54
2021/05/02 09:56:40;;;;;;;3.45;1.20;;;;;;;13.00;35.31;101784.31;5091880;28;20040;-52
2021/05/02 09:59:19;;;;;;;6.90;1.00;;;;;;;12.87;35.79;101789.50;5092592;28;20475;-52
2021/05/02 10:02:16;;;;;;;3.13;1.02;;;;;;;12.52;35.89;101784.50;5091561;28;20048;-52
2021/05/02 10:04:50;;;;;;;2.33;1.10;;;;;;;12.54;37.30;101787.88;5091344;28;20044;-57
2021/05/02 10:07:25;;;;;;;4.05;1.30;;;;;;;12.07;38.81;101783.56;5092692;28;20036;-54
2021/05/02 10:09:52;;;;;;;2.10;1.00;;;;;;;12.12;39.15;101794.69;5091387;28;20052;-49
2021/05/02 10:12:19;;;;;;;1.45;1.02;;;;;;;11.96;39.41;101792.91;5092552;28;20363;-57
2021/05/02 10:14:47;;;;;;;4.43;1.20;;;;;;;11.87;40.71;101803.09;5091121;28;20437;-53
2021/05/02 10:17:14;;;;;;;2.88;1.10;;;;;;;11.83;39.95;101797.13;5092462;28;20393;-57
2021/05/02 10:19:42;;;;;;;5.85;1.65;;;;;;;11.81;41.29;101801.66;5091461;28;20052;-52
2021/05/02 10:22:10;;;;;;;3.17;1.13;;;;;;;11.90;40.70;101801.16;5092472;28;20048;-57
2021/05/02 10:24:36;;;;;;;2.28;1.00;;;;;;;11.99;40.73;101811.19;5091195;28;20040;-50
2021/05/02 10:27:10;;;;;;;1.92;1.20;;;;;;;11.93;38.74;101806.25;5092346;28;20048;-53
2021/05/02 10:29:40;;;;;;;1.88;0.80;;;;;;;11.60;39.62;101812.44;5090943;28;20067;-53
2021/05/02 10:32:10;;;;;;;1.85;0.90;;;;;;;11.64;40.70;101810.47;5090861;28;20051;-53
2021/05/02 10:34:39;;;;;;;4.25;1.00;;;;;;;11.64;39.08;101811.34;5090817;28;20058;-53
2021/05/02 10:37:24;;;;;;;2.00;0.90;;;;;;;12.17;39.10;101804.06;5092207;28;20140;-54
2021/05/02 10:39:57;;;;;;;2.25;0.80;;;;;;;12.28;38.42;101807.84;5092064;28;20512;-51
2021/05/02 10:42:42;;;;;;;;;;;;;;;12.63;37.42;101808.47;5092489;28;20048;-50
2021/05/02 10:45:27;;;;;;;2.20;1.00;;;;;;;12.70;37.10;101800.19;5092283;28;20282;-52
2021/05/02 10:47:55;;;;;;;1.63;0.98;;;;;;;13.21;37.62;101797.16;5090945;28;20093;-53
2021/05/02 10:50:25;;;;;;;1.10;0.70;;;;;;;13.43;34.95;101794.06;5077972;28;20040;-57
2021/05/02 10:53:05;;;;;;;2.03;0.80;;;;;;;13.80;35.31;101787.31;5094611;28;20040;-57
2021/05/02 10:55:51;;;;;;;3.25;0.90;;;;;;;14.17;35.10;101792.03;5096249;28;20036;-57
2021/05/02 10:58:22;;;;;;;2.85;0.85;;;;;;;13.94;33.22;101791.72;5095000;28;20058;-57
2021/05/02 11:01:03;;;;;;;;;;;;;;;14.02;32.92;101797.34;5095511;28;20056;-56
2021/05/02 11:03:38;;;;;;;1.88;0.82;;;;;;;14.45;32.75;101795.47;5095138;28;20313;-57
2021/05/02 11:06:12;;;;;;;3.95;1.42;;;;;;;14.75;32.34;101794.41;5096121;28;20097;-58
2021/05/02 11:09:00;;;;;;;3.10;0.82;;;;;;;14.82;31.55;101785.94;5095915;28;20059;-58
2021/05/02 11:11:33;;;;;;;3.40;1.00;;;;;;;14.73;30.62;101794.50;5079423;28;20051;-57
2021/05/02 11:14:08;;;;;;;;;;;;;;;14.64;29.45;101798.66;5096083;28;20552;-57
2021/05/02 11:16:35;;;;;;;1.50;0.70;;;;;;;15.21;30.31;101804.47;5094631;28;20420;-57
2021/05/02 11:19:03;;;;;;;1.38;0.90;;;;;;;15.00;30.50;101788.28;5095835;28;20540;-57
2021/05/02 11:21:52;;;;;;;1.73;0.88;;;;;;;14.68;30.29;101792.19;5077943;28;20059;-57
2021/05/02 11:24:20;;;;;;;3.80;1.08;;;;;;;15.07;30.66;101792.22;5095832;28;20504;-57
2021/05/02 11:27:01;;;;;;;2.08;0.85;;;;;;;14.28;30.89;101791.31;5094417;28;20119;-57
2021/05/02 11:29:35;;;;;;;2.00;0.77;;;;;;;14.05;31.02;101806.03;5095273;28;20048;-57
2021/05/02 11:32:03;;;;;;;2.38;0.90;;;;;;;14.02;32.02;101807.09;5092601;28;20048;-53
2021/05/02 11:34:49;;;;;;;2.70;1.00;;;;;;;14.23;32.18;101809.28;5094863;28;20109;-53
2021/05/02 11:37:53;;;;;;;1.42;0.70;;;;;;;13.39;32.45;101811.03;5095594;28;20044;-57